Time;durP1;ratioP1;P1;durP2;ratioP2;P2;SDS_P1;SDS_P2;PMS_P1;PMS_P2;Temp;Humidity;BMP_temperature;BMP_pressure;BME280_temperature;BME280_humidity;BME280_pressure;Samples;Min_cycle;Max_cycle;Signal;HPM_P1;HPM_P2
2023/05/14 00:00:49;;;;;;;0.45;0.45;;;10.80;99.90;;;;;;5036256;28;20049;-83
2023/05/14 00:03:14;;;;;;;0.82;0.77;;;10.40;99.90;;;;;;5037777;28;20041;-83
2023/05/14 00:05:40;;;;;;;0.40;0.40;;;10.40;99.90;;;;;;5037827;28;20041;-83
2023/05/14 00:08:05;;;;;;;0.98;0.93;;;10.40;99.90;;;;;;5036669;28;20535;-83
2023/05/14 00:10:31;;;;;;;0.15;0.15;;;10.30;99.90;;;;;;5037328;28;20045;-83
2023/05/14 00:12:56;;;;;;;0.17;0.17;;;10.30;99.90;;;;;;5037102;28;20052;-82
2023/05/14 00:15:22;;;;;;;4.68;1.02;;;10.30;99.90;;;;;;5036229;28;20590;-83
2023/05/14 00:17:48;;;;;;;0.10;0.10;;;10.30;99.90;;;;;;5053415;28;20187;-83
2023/05/14 00:20:13;;;;;;;0.50;0.47;;;10.40;99.90;;;;;;5054529;28;20055;-83
2023/05/14 00:22:40;;;;;;;0.40;0.40;;;10.40;99.90;;;;;;5055249;28;20036;-83
2023/05/14 00:25:07;;;;;;;0.68;0.57;;;10.30;99.90;;;;;;5048035;28;20131;-83
2023/05/14 00:27:33;;;;;;;4.90;1.45;;;10.30;99.90;;;;;;5038207;28;20041;-82
2023/05/14 00:29:58;;;;;;;1.45;0.82;;;10.30;99.90;;;;;;5030617;28;20471;-83
2023/05/14 00:32:24;;;;;;;0.30;0.20;;;10.30;99.90;;;;;;5030446;28;20041;-84
2023/05/14 00:34:50;;;;;;;1.63;0.55;;;10.30;99.90;;;;;;5044198;28;20102;-84
2023/05/14 00:37:15;;;;;;;0.40;0.30;;;10.20;99.90;;;;;;5054479;28;20051;-83
2023/05/14 00:39:41;;;;;;;0.93;0.82;;;10.20;99.90;;;;;;5035865;28;20093;-83
2023/05/14 00:42:07;;;;;;;8.25;2.05;;;10.10;99.90;;;;;;5036060;28;20589;-83
2023/05/14 00:44:32;;;;;;;1.55;1.38;;;10.10;99.90;;;;;;5044338;28;20044;-83
2023/05/14 00:46:59;;;;;;;1.88;0.90;;;10.00;99.90;;;;;;5054866;28;20126;-82
2023/05/14 00:49:25;;;;;;;0.30;0.30;;;10.00;99.90;;;;;;5054604;28;20041;-83
2023/05/14 00:51:52;;;;;;;0.38;0.28;;;9.90;99.90;;;;;;5056749;28;20061;-83
2023/05/14 00:54:19;;;;;;;0.38;0.38;;;9.90;99.90;;;;;;5048448;28;20472;-83
2023/05/14 00:56:46;;;;;;;2.50;1.55;;;9.80;99.90;;;;;;5038598;28;20084;-83
2023/05/14 00:59:12;;;;;;;0.47;0.47;;;9.80;99.90;;;;;;5035352;28;20060;-83
2023/05/14 01:01:39;;;;;;;0.75;0.52;;;9.70;99.90;;;;;;5038581;28;20617;-83
2023/05/14 01:04:07;;;;;;;1.27;1.17;;;9.70;99.90;;;;;;5044142;28;20041;-83
2023/05/14 01:06:50;;;;;;;0.52;0.38;;;9.80;99.90;;;;;;5040327;28;20049;-83
2023/05/14 01:09:38;;;;;;;0.88;0.85;;;9.70;99.90;;;;;;5039960;28;20083;-83
2023/05/14 01:12:44;;;;;;;0.40;0.40;;;9.70;99.90;;;;;;5043446;28;20025;-82
2023/05/14 01:15:18;;;;;;;0.53;0.40;;;9.50;99.90;;;;;;5037669;28;20050;-81
2023/05/14 01:17:56;;;;;;;0.30;0.30;;;9.60;99.90;;;;;;5033485;28;20045;-82
2023/05/14 01:20:22;;;;;;;0.68;0.68;;;9.50;99.90;;;;;;5030389;28;20041;-82
2023/05/14 01:22:48;;;;;;;1.90;1.15;;;9.50;99.90;;;;;;5036841;28;20118;-83
2023/05/14 01:25:14;;;;;;;0.50;0.50;;;9.50;99.90;;;;;;5036851;28;20491;-83
2023/05/14 01:28:01;;;;;;;0.45;0.45;;;9.50;99.90;;;;;;5035386;28;20056;-82
2023/05/14 01:30:40;;;;;;;0.65;0.65;;;9.50;99.90;;;;;;5034075;28;20105;-83
2023/05/14 01:33:10;;;;;;;1.48;0.63;;;9.40;99.90;;;;;;5030918;28;20503;-83
2023/05/14 01:35:36;;;;;;;0.10;0.08;;;9.40;99.90;;;;;;5029471;28;20095;-83
2023/05/14 01:38:08;;;;;;;1.60;0.50;;;9.30;99.90;;;;;;5027886;28;20584;-83
2023/05/14 01:40:35;;;;;;;3.40;2.53;;;9.30;99.90;;;;;;5046972;28;20407;-82
2023/05/14 01:43:02;;;;;;;0.47;0.30;;;9.20;99.90;;;;;;5037004;28;20492;-83
2023/05/14 01:45:29;;;;;;;0.10;0.10;;;9.20;99.90;;;;;;5026702;28;20499;-83
2023/05/14 01:47:54;;;;;;;0.70;0.40;;;9.20;99.90;;;;;;5026951;28;20041;-83
2023/05/14 01:50:20;;;;;;;0.00;0.00;;;9.10;99.90;;;;;;5027007;28;20587;-82
2023/05/14 01:52:47;;;;;;;0.00;0.00;;;9.00;99.90;;;;;;5026970;28;20093;-84
2023/05/14 01:55:14;;;;;;;1.00;0.55;;;8.90;99.90;;;;;;5042680;28;20061;-83
2023/05/14 01:57:39;;;;;;;1.02;0.70;;;8.90;99.90;;;;;;5044895;28;20083;-82
2023/05/14 02:00:06;;;;;;;0.10;0.10;;;8.90;99.90;;;;;;5045911;28;20517;-83
2023/05/14 02:02:31;;;;;;;0.00;0.00;;;8.90;99.90;;;;;;5045872;28;20049;-83
2023/05/14 02:04:57;;;;;;;0.68;0.15;;;8.90;99.90;;;;;;5036481;28;20048;-82
2023/05/14 02:07:22;;;;;;;0.00;0.00;;;8.80;99.90;;;;;;5049982;28;20029;-82
2023/05/14 02:09:48;;;;;;;0.08;0.08;;;8.80;99.90;;;;;;5049837;28;20022;-82
2023/05/14 02:12:14;;;;;;;0.00;0.00;;;8.80;99.90;;;;;;5050285;28;20089;-82
2023/05/14 02:14:39;;;;;;;0.30;0.25;;;8.80;99.90;;;;;;5061118;28;20028;-82
2023/05/14 02:17:05;;;;;;;0.10;0.10;;;8.80;99.90;;;;;;5070061;28;20388;-83
2023/05/14 02:19:31;;;;;;;0.10;0.10;;;8.80;99.90;;;;;;5070208;28;20021;-83
2023/05/14 02:21:58;;;;;;;0.65;0.65;;;8.80;99.90;;;;;;5069955;28;20089;-83
2023/05/14 02:24:23;;;;;;;0.88;0.60;;;8.90;99.90;;;;;;5069226;28;20032;-83
2023/05/14 02:26:52;;;;;;;0.32;0.32;;;8.90;99.90;;;;;;5054396;28;20041;-83
2023/05/14 02:29:18;;;;;;;0.30;0.28;;;8.90;99.90;;;;;;5028644;28;20052;-83
2023/05/14 02:31:44;;;;;;;0.00;0.00;;;8.90;99.90;;;;;;5026387;28;20461;-83
2023/05/14 02:34:09;;;;;;;0.43;0.43;;;9.00;99.90;;;;;;5031016;28;20072;-82
2023/05/14 02:36:35;;;;;;;1.65;0.63;;;9.20;99.90;;;;;;5026628;28;20049;-83
2023/05/14 02:39:01;;;;;;;0.17;0.17;;;9.30;99.90;;;;;;5026168;28;20069;-82
2023/05/14 02:41:26;;;;;;;0.05;0.05;;;9.30;99.90;;;;;;5026597;28;20154;-82
2023/05/14 02:43:53;;;;;;;1.92;1.48;;;9.30;99.90;;;;;;5030658;28;20576;-84
2023/05/14 02:46:18;;;;;;;0.30;0.20;;;9.30;99.90;;;;;;5046014;28;20503;-83
2023/05/14 02:48:44;;;;;;;0.20;0.20;;;9.30;99.90;;;;;;5049216;28;20073;-82
2023/05/14 02:51:10;;;;;;;0.38;0.38;;;9.30;99.90;;;;;;5048190;28;20076;-83
2023/05/14 02:53:35;;;;;;;0.75;0.47;;;9.30;99.90;;;;;;5034250;28;20045;-82
2023/05/14 02:56:01;;;;;;;1.38;1.27;;;9.30;99.90;;;;;;5035443;28;20064;-84
2023/05/14 02:58:27;;;;;;;4.35;1.85;;;9.30;99.90;;;;;;5029140;28;20057;-83
2023/05/14 03:00:52;;;;;;;0.38;0.38;;;9.30;99.90;;;;;;5029069;28;20076;-83
2023/05/14 03:03:18;;;;;;;0.30;0.30;;;9.30;99.90;;;;;;5032037;28;20042;-83
2023/05/14 03:05:44;;;;;;;0.75;0.73;;;9.30;99.90;;;;;;5031165;28;20052;-83
2023/05/14 03:08:10;;;;;;;0.30;0.30;;;9.20;99.90;;;;;;5030724;28;20041;-82
2023/05/14 03:10:35;;;;;;;2.92;0.93;;;9.10;99.90;;;;;;5030137;28;20076;-83
2023/05/14 03:13:01;;;;;;;0.08;0.08;;;9.10;99.90;;;;;;5030932;28;20049;-83
2023/05/14 03:15:27;;;;;;;0.60;0.35;;;9.00;99.90;;;;;;5048573;28;20052;-83
2023/05/14 03:17:52;;;;;;;0.50;0.50;;;9.00;99.90;;;;;;5050495;28;20495;-83
2023/05/14 03:20:19;;;;;;;0.73;0.73;;;8.90;99.90;;;;;;5048393;28;20052;-83
2023/05/14 03:22:45;;;;;;;0.13;0.13;;;9.30;99.90;;;;;;5049450;28;20411;-83
2023/05/14 03:25:10;;;;;;;2.30;0.90;;;8.90;99.90;;;;;;5030527;28;20038;-83
2023/05/14 03:27:36;;;;;;;0.00;0.00;;;8.90;99.90;;;;;;5029589;28;20049;-83
2023/05/14 03:30:02;;;;;;;0.03;0.00;;;8.90;99.90;;;;;;5029787;28;20037;-83
2023/05/14 03:32:28;;;;;;;0.22;0.22;;;8.90;99.90;;;;;;5037199;28;20033;-83
2023/05/14 03:34:54;;;;;;;0.25;0.25;;;8.90;99.90;;;;;;5034825;28;20049;-83
2023/05/14 03:37:20;;;;;;;1.60;0.43;;;8.90;99.90;;;;;;5029734;28;20076;-83
2023/05/14 03:39:45;;;;;;;0.40;0.15;;;8.90;99.90;;;;;;5029379;28;20069;-83
2023/05/14 03:42:11;;;;;;;0.47;0.40;;;8.80;99.90;;;;;;5029731;28;20050;-83
2023/05/14 03:44:36;;;;;;;0.15;0.15;;;8.70;99.90;;;;;;5030501;28;20050;-83
2023/05/14 03:47:02;;;;;;;0.13;0.13;;;8.70;99.90;;;;;;5029061;28;20049;-83
2023/05/14 03:49:28;;;;;;;0.20;0.20;;;8.60;99.90;;;;;;5028913;28;20048;-83
2023/05/14 03:51:53;;;;;;;0.00;0.00;;;8.50;99.90;;;;;;5030770;28;20052;-82
2023/05/14 03:54:19;;;;;;;0.00;0.00;;;8.40;99.90;;;;;;5042728;28;20042;-83
2023/05/14 03:56:45;;;;;;;0.13;0.13;;;8.40;99.90;;;;;;5047886;28;20114;-83
2023/05/14 03:59:10;;;;;;;0.00;0.00;;;8.40;99.90;;;;;;5047411;28;20065;-83
2023/05/14 04:01:36;;;;;;;0.00;0.00;;;8.40;99.90;;;;;;5048108;28;20053;-83
2023/05/14 04:04:01;;;;;;;0.00;0.00;;;8.40;99.90;;;;;;5047975;28;21141;-83
2023/05/14 04:06:27;;;;;;;0.28;0.20;;;8.40;99.90;;;;;;5048171;28;20048;-83
2023/05/14 04:08:53;;;;;;;0.00;0.00;;;8.40;99.90;;;;;;5047461;28;20049;-83
2023/05/14 04:11:18;;;;;;;0.20;0.20;;;8.50;99.90;;;;;;5047468;28;20048;-83
2023/05/14 04:13:44;;;;;;;0.88;0.30;;;8.50;99.90;;;;;;5045629;28;20040;-82
2023/05/14 04:16:09;;;;;;;0.00;0.00;;;8.60;99.90;;;;;;5028689;28;20056;-83
2023/05/14 04:18:35;;;;;;;0.45;0.45;;;8.60;99.90;;;;;;5027608;28;20064;-83
2023/05/14 04:21:01;;;;;;;0.38;0.38;;;8.80;99.90;;;;;;5028708;28;20049;-83
2023/05/14 04:23:27;;;;;;;0.50;0.22;;;9.20;99.90;;;;;;5042427;28;20045;-83
2023/05/14 04:25:53;;;;;;;0.20;0.20;;;8.90;99.90;;;;;;5047649;28;20045;-83
2023/05/14 04:28:19;;;;;;;0.15;0.15;;;9.10;99.90;;;;;;5047450;28;20634;-83
2023/05/14 04:30:44;;;;;;;0.95;0.68;;;9.10;99.90;;;;;;5048733;28;20068;-83
2023/05/14 04:33:10;;;;;;;0.55;0.55;;;9.10;99.90;;;;;;5046671;28;20045;-83
2023/05/14 04:35:36;;;;;;;0.20;0.20;;;9.20;99.90;;;;;;5028162;28;20042;-82
2023/05/14 04:38:02;;;;;;;0.13;0.13;;;9.30;99.90;;;;;;5027638;28;20045;-83
2023/05/14 04:40:27;;;;;;;0.17;0.17;;;9.30;99.90;;;;;;5028472;28;20045;-82
2023/05/14 04:42:53;;;;;;;2.90;0.77;;;9.40;99.90;;;;;;5043297;28;20052;-83
2023/05/14 04:45:19;;;;;;;1.10;0.40;;;9.50;99.90;;;;;;5033510;28;20065;-84
2023/05/14 04:47:45;;;;;;;1.58;1.48;;;9.60;99.90;;;;;;5047672;28;20071;-83
2023/05/14 04:50:11;;;;;;;0.20;0.20;;;9.70;99.90;;;;;;5048799;28;20053;-83
2023/05/14 04:52:37;;;;;;;1.13;0.70;;;9.70;99.90;;;;;;5048019;28;20411;-83
2023/05/14 04:55:04;;;;;;;0.05;0.05;;;9.70;99.90;;;;;;5030791;28;20045;-83
2023/05/14 04:57:29;;;;;;;0.35;0.30;;;9.80;99.90;;;;;;5027747;28;20053;-83
2023/05/14 04:59:55;;;;;;;0.10;0.10;;;9.80;99.90;;;;;;5027646;28;20048;-84
2023/05/14 05:02:21;;;;;;;1.10;0.85;;;9.80;99.90;;;;;;5028180;28;20100;-83
2023/05/14 05:04:47;;;;;;;0.63;0.55;;;9.90;99.90;;;;;;5027961;28;20041;-83
2023/05/14 05:07:13;;;;;;;2.55;0.40;;;9.90;99.90;;;;;;5027149;28;20160;-84
2023/05/14 05:09:39;;;;;;;0.73;0.50;;;10.00;99.90;;;;;;5026861;28;20053;-83
2023/05/14 05:12:05;;;;;;;1.77;0.28;;;10.10;99.90;;;;;;5027629;28;20144;-84
2023/05/14 05:14:31;;;;;;;1.60;1.13;;;10.10;99.90;;;;;;5032544;28;20077;-84
2023/05/14 05:16:56;;;;;;;0.35;0.30;;;10.90;99.90;;;;;;5047522;28;20072;-83
2023/05/14 05:19:22;;;;;;;0.35;0.32;;;10.40;99.90;;;;;;5046753;28;20486;-83
2023/05/14 05:21:48;;;;;;;0.68;0.40;;;10.20;99.90;;;;;;5047038;28;20053;-83
2023/05/14 05:24:13;;;;;;;0.50;0.45;;;10.30;99.90;;;;;;5045534;28;20048;-84
2023/05/14 05:26:39;;;;;;;0.10;0.10;;;10.40;99.90;;;;;;5047669;28;20099;-83
2023/05/14 05:29:06;;;;;;;1.45;0.85;;;10.40;99.90;;;;;;5050604;28;20056;-83
2023/05/14 05:31:32;;;;;;;1.13;0.20;;;10.50;99.90;;;;;;5051091;28;20101;-83
2023/05/14 05:33:58;;;;;;;1.60;1.10;;;10.70;99.90;;;;;;5049723;28;20100;-83
2023/05/14 05:36:24;;;;;;;1.60;1.48;;;10.80;99.90;;;;;;5049135;28;20463;-83
2023/05/14 05:38:50;;;;;;;0.50;0.40;;;11.00;99.90;;;;;;5046297;28;20053;-84
2023/05/14 05:41:15;;;;;;;1.17;0.95;;;11.20;99.90;;;;;;5046667;28;20528;-83
2023/05/14 05:43:41;;;;;;;8.40;1.63;;;11.40;99.90;;;;;;5040228;28;20037;-83
2023/05/14 05:46:07;;;;;;;1.23;0.55;;;11.60;99.90;;;;;;5026229;28;20042;-83
2023/05/14 05:48:33;;;;;;;0.00;0.00;;;11.70;99.90;;;;;;5026264;28;20492;-82
2023/05/14 05:50:58;;;;;;;3.50;2.15;;;11.90;99.90;;;;;;5026575;28;20073;-83
2023/05/14 05:53:27;;;;;;;0.20;0.20;;;12.00;99.90;;;;;;5027774;28;20045;-83
2023/05/14 05:55:52;;;;;;;1.00;0.75;;;12.10;99.90;;;;;;5045683;28;20130;-83
2023/05/14 05:58:18;;;;;;;0.40;0.28;;;12.40;99.90;;;;;;5057231;28;20053;-82
2023/05/14 06:00:45;;;;;;;0.65;0.63;;;12.60;99.90;;;;;;5067774;28;20130;-83
2023/05/14 06:03:11;;;;;;;1.35;0.82;;;12.90;99.90;;;;;;5060449;28;20102;-84
2023/05/14 06:05:36;;;;;;;0.50;0.50;;;13.20;99.90;;;;;;5070401;28;20041;-83
2023/05/14 06:08:03;;;;;;;0.45;0.40;;;13.50;99.90;;;;;;5069239;28;20033;-83
2023/05/14 06:10:28;;;;;;;1.60;1.00;;;13.70;99.90;;;;;;5070128;28;20033;-83
2023/05/14 06:12:54;;;;;;;0.30;0.30;;;14.20;99.90;;;;;;5068377;28;20036;-84
2023/05/14 06:15:20;;;;;;;2.80;0.63;;;14.70;99.90;;;;;;5049989;28;20021;-83
2023/05/14 06:17:46;;;;;;;0.45;0.30;;;15.20;99.90;;;;;;5044626;28;20083;-84
2023/05/14 06:20:12;;;;;;;0.32;0.32;;;16.40;99.90;;;;;;5027137;28;20041;-84
2023/05/14 06:22:37;;;;;;;0.20;0.20;;;16.60;99.90;;;;;;5026833;28;20052;-83
2023/05/14 06:25:03;;;;;;;1.75;1.23;;;17.30;99.90;;;;;;5044458;28;20036;-82
2023/05/14 06:27:29;;;;;;;1.80;0.65;;;16.80;1.00;;;;;;5047506;28;20052;-83
2023/05/14 06:29:55;;;;;;;0.70;0.70;;;17.30;99.90;;;;;;5046928;28;20048;-82
2023/05/14 06:32:20;;;;;;;0.60;0.47;;;17.50;99.90;;;;;;5046074;28;20410;-83
2023/05/14 06:34:46;;;;;;;4.07;0.25;;;17.60;75.30;;;;;;5035534;28;20048;-84
2023/05/14 06:37:12;;;;;;;2.92;0.98;;;17.90;99.90;;;;;;5046451;28;20506;-83
2023/05/14 06:39:38;;;;;;;0.10;0.10;;;18.50;99.90;;;;;;5046657;28;20128;-83
2023/05/14 06:42:04;;;;;;;1.67;1.02;;;19.10;99.90;;;;;;5046683;28;20064;-83
2023/05/14 06:44:30;;;;;;;0.32;0.32;;;19.60;1.00;;;;;;5033829;28;20049;-83
2023/05/14 06:46:56;;;;;;;1.25;0.88;;;20.20;99.90;;;;;;5026550;28;20081;-83
2023/05/14 06:49:22;;;;;;;0.32;0.32;;;20.40;1.00;;;;;;5026854;28;20081;-84
2023/05/14 06:51:47;;;;;;;14.70;1.45;;;20.00;99.90;;;;;;5033136;28;20107;-83
2023/05/14 06:54:13;;;;;;;18.33;1.42;;;19.90;1.00;;;;;;5034880;28;20523;-83
2023/05/14 06:56:39;;;;;;;0.38;0.38;;;20.00;1.00;;;;;;5029197;28;20539;-83
2023/05/14 06:59:04;;;;;;;0.25;0.25;;;19.60;99.90;;;;;;5046205;28;20071;-83
2023/05/14 07:01:30;;;;;;;1.60;0.70;;;19.40;1.00;;;;;;5046293;28;20095;-84
2023/05/14 07:03:56;;;;;;;1.08;0.50;;;19.00;1.00;;;;;;5045664;28;20041;-83
2023/05/14 07:06:22;;;;;;;0.40;0.40;;;19.20;1.00;;;;;;5050367;28;20045;-83
2023/05/14 07:08:48;;;;;;;1.17;0.80;;;19.30;26.20;;;;;;5049544;28;20048;-84
2023/05/14 07:11:13;;;;;;;0.20;0.20;;;19.40;1.00;;;;;;5049807;28;20121;-84
2023/05/14 07:13:39;;;;;;;2.17;1.55;;;18.80;1.00;;;;;;5041935;28;20042;-84
2023/05/14 07:16:06;;;;;;;3.38;1.52;;;19.90;1.00;;;;;;5028026;28;20411;-83
2023/05/14 07:18:32;;;;;;;4.15;0.75;;;18.70;55.60;;;;;;5037958;28;20044;-84
2023/05/14 07:20:57;;;;;;;0.13;0.13;;;19.30;1.00;;;;;;5042209;28;20045;-84
2023/05/14 07:23:23;;;;;;;0.28;0.22;;;20.80;99.90;;;;;;5039541;28;20045;-85
2023/05/14 07:25:48;;;;;;;0.25;0.25;;;20.90;99.90;;;;;;5024353;28;20045;-84
2023/05/14 07:28:14;;;;;;;0.25;0.25;;;21.30;18.60;;;;;;5025605;28;20052;-84
2023/05/14 07:30:40;;;;;;;0.20;0.20;;;20.60;1.00;;;;;;5029517;28;20056;-84
2023/05/14 07:33:05;;;;;;;1.30;1.00;;;20.70;1.00;;;;;;5030093;28;20079;-84
2023/05/14 07:35:31;;;;;;;1.08;0.63;;;20.90;1.00;;;;;;5031465;28;20148;-84
2023/05/14 07:37:57;;;;;;;0.10;0.10;;;21.00;1.00;;;;;;5032430;28;20131;-84
2023/05/14 07:40:23;;;;;;;0.45;0.45;;;21.00;1.00;;;;;;5031497;28;20041;-84
2023/05/14 07:42:49;;;;;;;1.10;0.70;;;20.80;1.00;;;;;;5032578;28;20053;-84
2023/05/14 07:45:15;;;;;;;0.30;0.30;;;21.00;1.00;;;;;;5031287;28;20130;-83
2023/05/14 07:47:41;;;;;;;0.43;0.40;;;21.10;1.00;;;;;;5032154;28;20510;-84
2023/05/14 07:50:07;;;;;;;0.55;0.55;;;20.60;1.00;;;;;;5030829;28;20123;-84
2023/05/14 07:52:33;;;;;;;0.80;0.55;;;20.20;1.00;;;;;;5030640;28;20412;-84
2023/05/14 07:55:00;;;;;;;0.75;0.65;;;20.20;99.90;;;;;;5032284;28;20046;-84
2023/05/14 07:57:26;;;;;;;0.32;0.32;;;20.10;1.00;;;;;;5031272;28;20112;-85
2023/05/14 07:59:52;;;;;;;0.60;0.60;;;20.10;1.00;;;;;;5030691;28;20045;-83
2023/05/14 08:02:17;;;;;;;0.80;0.50;;;20.00;1.00;;;;;;5031565;28;20077;-83
2023/05/14 08:04:43;;;;;;;0.35;0.30;;;20.00;1.00;;;;;;5028849;28;20041;-83
2023/05/14 08:07:09;;;;;;;0.28;0.28;;;20.20;19.90;;;;;;5031801;28;20068;-82
2023/05/14 08:09:35;;;;;;;0.55;0.52;;;20.70;99.90;;;;;;5028973;28;20113;-83
2023/05/14 08:12:01;;;;;;;0.55;0.43;;;20.60;1.00;;;;;;5028023;28;20196;-85
2023/05/14 08:14:27;;;;;;;0.90;0.68;;;20.40;1.00;;;;;;5037772;28;20048;-84
2023/05/14 08:16:53;;;;;;;1.58;0.85;;;21.10;1.00;;;;;;5051191;28;20044;-82
2023/05/14 08:19:19;;;;;;;1.25;0.70;;;21.80;1.00;;;;;;5046521;28;20183;-82
2023/05/14 08:21:45;;;;;;;0.65;0.65;;;22.10;1.00;;;;;;5038449;28;20052;-84
2023/05/14 08:24:11;;;;;;;1.02;0.95;;;21.50;1.00;;;;;;5027208;28;20053;-83
2023/05/14 08:26:37;;;;;;;1.55;0.73;;;21.30;1.00;;;;;;5039440;28;20384;-83
2023/05/14 08:29:03;;;;;;;0.25;0.20;;;21.20;1.00;;;;;;5027113;28;20056;-83
2023/05/14 08:31:29;;;;;;;0.63;0.47;;;21.30;1.00;;;;;;5031697;28;20041;-84
2023/05/14 08:33:55;;;;;;;1.08;0.57;;;21.50;99.90;;;;;;5032581;28;20049;-85
2023/05/14 08:36:20;;;;;;;2.00;0.73;;;21.30;99.90;;;;;;5044978;28;20052;-84
2023/05/14 08:38:47;;;;;;;0.77;0.43;;;21.40;99.90;;;;;;5033359;28;20037;-84
2023/05/14 08:41:14;;;;;;;0.50;0.50;;;22.20;99.90;;;;;;5017324;28;20052;-84
2023/05/14 08:44:02;;;;;;;7.88;0.80;;;22.90;99.90;;;;;;5049694;28;20061;-83
2023/05/14 08:46:30;;;;;;;0.85;0.68;;;23.40;99.90;;;;;;5046177;28;20049;-82
2023/05/14 08:49:03;;;;;;;0.30;0.30;;;23.90;99.90;;;;;;5040644;28;20056;-81
2023/05/14 08:51:30;;;;;;;0.10;0.10;;;24.20;99.90;;;;;;5043837;28;20052;-82
2023/05/14 08:54:01;;;;;;;0.17;0.17;;;24.20;99.90;;;;;;5030276;28;20059;-82
2023/05/14 08:56:27;;;;;;;1.42;1.15;;;23.70;99.90;;;;;;5028186;28;20061;-83
2023/05/14 08:58:53;;;;;;;0.13;0.13;;;23.50;99.90;;;;;;5047235;28;20051;-82
2023/05/14 09:01:19;;;;;;;2.42;0.82;;;23.40;99.90;;;;;;5043290;28;20056;-82
2023/05/14 09:03:45;;;;;;;0.40;0.30;;;23.30;99.90;;;;;;5032190;28;20388;-81
2023/05/14 09:06:13;;;;;;;1.05;0.93;;;23.10;99.90;;;;;;5047157;28;20168;-80
2023/05/14 09:08:39;;;;;;;0.10;0.10;;;23.30;99.90;;;;;;5028657;28;20450;-80
2023/05/14 09:11:05;;;;;;;0.80;0.60;;;23.40;99.90;;;;;;5045617;28;20122;-80
2023/05/14 09:13:31;;;;;;;1.77;0.77;;;23.30;99.90;;;;;;5043426;28;20202;-80
2023/05/14 09:15:57;;;;;;;0.75;0.52;;;24.00;99.90;;;;;;5027123;28;20044;-80
2023/05/14 09:18:23;;;;;;;0.88;0.77;;;24.10;99.90;;;;;;5028431;28;20083;-81
2023/05/14 09:20:51;;;;;;;1.33;0.85;;;23.50;99.90;;;;;;5029341;28;20053;-80
2023/05/14 09:23:16;;;;;;;1.38;0.70;;;23.50;99.90;;;;;;5031801;28;20137;-80
2023/05/14 09:25:42;;;;;;;1.15;0.70;;;23.60;99.90;;;;;;5048610;28;20288;-80
2023/05/14 09:28:08;;;;;;;0.20;0.20;;;23.70;99.90;;;;;;5046281;28;20032;-80
2023/05/14 09:30:35;;;;;;;6.05;1.38;;;23.70;99.90;;;;;;5045174;28;20129;-81
2023/05/14 09:33:02;;;;;;;0.15;0.15;;;24.10;99.90;;;;;;5033949;28;20053;-80
2023/05/14 09:35:28;;;;;;;5.40;1.00;;;24.00;99.90;;;;;;5029768;28;20086;-80
2023/05/14 09:37:55;;;;;;;1.02;0.93;;;24.30;99.90;;;;;;5042613;28;20579;-80
2023/05/14 09:40:22;;;;;;;0.60;0.60;;;24.20;99.90;;;;;;5045197;28;20052;-81
2023/05/14 09:42:48;;;;;;;3.20;1.65;;;24.30;99.90;;;;;;5048635;28;20045;-80
2023/05/14 09:45:15;;;;;;;2.33;1.23;;;25.00;99.90;;;;;;5044075;28;20040;-81
2023/05/14 09:47:40;;;;;;;0.00;0.00;;;25.10;99.90;;;;;;5047948;28;20044;-81
2023/05/14 09:50:07;;;;;;;1.33;1.13;;;25.40;99.90;;;;;;5047902;28;20526;-81
2023/05/14 09:52:33;;;;;;;0.82;0.73;;;25.70;99.90;;;;;;5045984;28;20640;-81
2023/05/14 09:54:59;;;;;;;0.75;0.60;;;25.70;99.90;;;;;;5034579;28;20040;-81
2023/05/14 09:57:25;;;;;;;0.63;0.63;;;24.90;99.90;;;;;;5046802;28;20267;-82
2023/05/14 09:59:52;;;;;;;0.20;0.20;;;24.60;99.90;;;;;;5047844;28;20096;-81
2023/05/14 10:02:23;;;;;;;0.38;0.32;;;24.50;99.90;;;;;;5047232;28;20059;-81
2023/05/14 10:04:50;;;;;;;0.60;0.35;;;24.90;99.90;;;;;;5034114;28;20061;-82
2023/05/14 10:07:23;;;;;;;0.93;0.80;;;25.00;99.90;;;;;;5027154;28;20431;-82
2023/05/14 10:09:55;;;;;;;0.75;0.68;;;24.90;99.90;;;;;;5037930;28;20053;-82
2023/05/14 10:12:22;;;;;;;0.45;0.45;;;24.50;99.90;;;;;;5069885;28;20044;-82
2023/05/14 10:14:52;;;;;;;1.45;0.70;;;24.60;99.90;;;;;;5071155;28;20043;-82
2023/05/14 10:17:21;;;;;;;4.35;1.20;;;24.70;99.90;;;;;;5065731;28;20025;-82
2023/05/14 10:19:53;;;;;;;0.40;0.35;;;24.90;99.90;;;;;;5052931;28;20029;-83
2023/05/14 10:22:29;;;;;;;1.30;1.00;;;25.00;99.90;;;;;;5052715;28;20032;-82
2023/05/14 10:24:55;;;;;;;2.63;1.33;;;25.60;99.90;;;;;;5054146;28;20037;-82
2023/05/14 10:27:22;;;;;;;0.30;0.30;;;25.70;99.90;;;;;;5054522;28;20049;-83
2023/05/14 10:29:55;;;;;;;0.50;0.35;;;26.00;99.90;;;;;;5053955;28;20038;-82
2023/05/14 10:32:25;;;;;;;1.00;0.73;;;26.20;99.90;;;;;;5055035;28;20089;-83
2023/05/14 10:34:54;;;;;;;0.95;0.47;;;26.40;99.90;;;;;;5048986;28;20046;-83
2023/05/14 10:37:22;;;;;;;0.20;0.20;;;26.20;99.90;;;;;;5036009;28;20403;-83
2023/05/14 10:40:00;;;;;;;3.00;0.90;;;26.40;99.90;;;;;;5034495;28;20073;-83
2023/05/14 10:42:39;;;;;;;0.77;0.52;;;26.20;99.90;;;;;;5032803;28;20107;-83
2023/05/14 10:45:12;;;;;;;1.60;0.85;;;25.80;99.90;;;;;;5032523;28;20049;-82
2023/05/14 10:47:40;;;;;;;14.70;0.75;;;25.50;99.90;;;;;;5031284;28;20046;-82
2023/05/14 10:50:10;;;;;;;1.58;0.77;;;26.10;99.90;;;;;;5032279;28;20049;-83
2023/05/14 10:52:37;;;;;;;0.52;0.35;;;26.20;99.90;;;;;;5031392;28;20081;-83
2023/05/14 10:55:06;;;;;;;4.40;0.73;;;26.30;99.90;;;;;;5040197;28;20056;-83
2023/05/14 10:57:34;;;;;;;0.60;0.50;;;25.80;99.90;;;;;;5031023;28;20065;-82
2023/05/14 11:00:01;;;;;;;0.75;0.63;;;25.60;99.90;;;;;;5040624;28;20041;-83
2023/05/14 11:02:32;;;;;;;0.32;0.28;;;25.80;99.90;;;;;;5033230;28;20137;-82
2023/05/14 11:04:58;;;;;;;0.70;0.52;;;25.80;99.90;;;;;;5039914;28;20052;-83
2023/05/14 11:07:39;;;;;;;0.55;0.30;;;25.60;96.10;;;;;;5026161;28;20053;-83
2023/05/14 11:10:07;;;;;;;0.63;0.47;;;26.00;99.80;;;;;;5031155;28;20045;-84
2023/05/14 11:12:35;;;;;;;0.70;0.43;;;26.30;99.90;;;;;;5032934;28;20105;-83
2023/05/14 11:15:03;;;;;;;0.20;0.20;;;26.30;95.50;;;;;;5033792;28;20045;-81
2023/05/14 11:17:30;;;;;;;0.52;0.30;;;26.00;88.00;;;;;;5047998;28;20097;-82
2023/05/14 11:19:56;;;;;;;0.60;0.38;;;26.40;92.40;;;;;;5054181;28;20419;-81
2023/05/14 11:22:23;;;;;;;1.65;0.50;;;26.30;97.40;;;;;;5051600;28;20041;-84
2023/05/14 11:24:49;;;;;;;0.10;0.10;;;26.40;93.40;;;;;;5039156;28;20407;-83
2023/05/14 11:27:19;;;;;;;0.30;0.28;;;26.70;95.70;;;;;;5037441;28;20049;-83
2023/05/14 11:29:46;;;;;;;2.70;0.75;;;26.60;94.70;;;;;;5034698;28;20044;-85
2023/05/14 11:32:13;;;;;;;0.65;0.50;;;26.00;74.20;;;;;;5043703;28;20033;-85
2023/05/14 11:34:39;;;;;;;4.13;1.17;;;26.80;87.30;;;;;;5038417;28;20507;-85
2023/05/14 11:37:09;;;;;;;0.50;0.45;;;27.70;78.50;;;;;;5044312;28;20048;-85
2023/05/14 11:39:36;;;;;;;0.90;0.47;;;27.70;86.50;;;;;;5024464;28;20680;-85
2023/05/14 11:42:13;;;;;;;0.82;0.55;;;28.40;76.10;;;;;;5026309;28;20060;-85
2023/05/14 11:44:43;;;;;;;0.40;0.40;;;28.70;88.00;;;;;;5026790;28;20072;-84
2023/05/14 11:47:09;;;;;;;0.50;0.32;;;29.60;90.70;;;;;;5027532;28;20050;-85
2023/05/14 11:49:36;;;;;;;0.50;0.30;;;30.30;95.20;;;;;;5029088;28;20648;-85
2023/05/14 11:52:04;;;;;;;2.90;0.47;;;30.70;97.60;;;;;;5025040;28;20050;-85
2023/05/14 11:54:32;;;;;;;0.25;0.25;;;31.10;98.80;;;;;;5025251;28;20523;-85
2023/05/14 11:56:58;;;;;;;0.65;0.30;;;31.70;99.30;;;;;;5025207;28;20061;-85
2023/05/14 11:59:30;;;;;;;0.35;0.35;;;32.40;99.90;;;;;;5032672;28;20049;-86
2023/05/14 12:01:56;;;;;;;0.57;0.45;;;30.90;27.40;;;;;;5025703;28;20065;-85
2023/05/14 12:04:22;;;;;;;8.40;1.45;;;30.70;11.60;;;;;;5043333;28;20045;-85
2023/05/14 12:06:48;;;;;;;2.95;0.77;;;29.80;25.10;;;;;;5045900;28;20052;-85
2023/05/14 12:09:19;;;;;;;0.10;0.10;;;29.30;13.30;;;;;;5024959;28;20049;-84
2023/05/14 12:11:50;;;;;;;1.27;0.75;;;28.10;1.00;;;;;;5026497;28;20183;-84
2023/05/14 12:14:20;;;;;;;2.63;0.70;;;27.40;1.00;;;;;;5026037;28;20116;-84
2023/05/14 12:16:47;;;;;;;0.40;0.40;;;27.90;1.00;;;;;;5044876;28;20041;-84
2023/05/14 12:19:17;;;;;;;0.95;0.50;;;28.20;1.00;;;;;;5046833;28;20399;-84
2023/05/14 12:21:45;;;;;;;0.10;0.10;;;29.10;1.00;;;;;;5046534;28;20480;-84
2023/05/14 12:24:12;;;;;;;0.47;0.47;;;29.70;1.00;;;;;;5046615;28;20124;-86
2023/05/14 12:26:38;;;;;;;0.30;0.30;;;30.40;14.50;;;;;;5029649;28;20062;-85
2023/05/14 12:29:07;;;;;;;0.38;0.20;;;30.10;5.60;;;;;;5046658;28;20045;-86
2023/05/14 12:31:34;;;;;;;0.20;0.20;;;28.50;1.00;;;;;;5046381;28;20446;-84
2023/05/14 12:33:59;;;;;;;0.40;0.30;;;29.40;1.00;;;;;;5046460;28;20128;-85
2023/05/14 12:36:25;;;;;;;0.30;0.22;;;29.20;1.00;;;;;;5042584;28;20187;-85
2023/05/14 12:39:02;;;;;;;0.35;0.32;;;29.00;1.00;;;;;;5026601;28;20045;-84
2023/05/14 12:41:32;;;;;;;0.55;0.32;;;29.00;1.00;;;;;;5025796;28;20546;-85
2023/05/14 12:43:58;;;;;;;0.70;0.52;;;28.80;1.00;;;;;;5025389;28;20488;-85
2023/05/14 12:46:26;;;;;;;0.15;0.15;;;28.60;1.00;;;;;;5025522;28;20524;-83
2023/05/14 12:48:52;;;;;;;0.40;0.30;;;28.80;1.00;;;;;;5025486;28;20114;-84
2023/05/14 12:51:18;;;;;;;0.00;0.00;;;28.80;1.00;;;;;;5025439;28;20049;-85